Time;durP1;ratioP1;P1;durP2;ratioP2;P2;SDS_P1;SDS_P2;PMS_P1;PMS_P2;Temp;Humidity;BMP_temperature;BMP_pressure;BME280_temperature;BME280_humidity;BME280_pressure;Samples;Min_cycle;Max_cycle;Signal;HPM_P1;HPM_P2
2024/01/22 00:02:49;;;;;;;4.43;3.03;;;;;9.10;100485.00;;;;9787131;30;20240;-85
2024/01/22 00:07:51;;;;;;;4.03;2.93;;;;;9.10;100470.00;;;;9793595;30;20687;-87
2024/01/22 00:12:52;;;;;;;4.10;2.53;;;;;9.20;100480.00;;;;9793457;30;20233;-84
2024/01/22 00:17:53;;;;;;;4.70;2.90;;;;;9.20;100443.00;;;;9782088;30;20238;-84
2024/01/22 00:22:54;;;;;;;6.60;2.93;;;;;9.30;100440.00;;;;9786608;30;20607;-85
2024/01/22 00:27:56;;;;;;;4.83;2.97;;;;;9.40;100430.00;;;;9796173;30;20233;-87
2024/01/22 00:32:57;;;;;;;3.17;2.77;;;;;9.40;100420.00;;;;9809246;30;20255;-87
2024/01/22 00:37:58;;;;;;;5.63;2.47;;;;;9.50;100413.00;;;;9785482;30;20220;-87
2024/01/22 00:42:59;;;;;;;3.93;2.73;;;;;9.60;100420.00;;;;9802933;30;20229;-87
2024/01/22 00:48:01;;;;;;;3.57;2.27;;;;;9.60;100412.00;;;;9769662;30;20237;-84
2024/01/22 00:53:02;;;;;;;4.73;2.30;;;;;9.60;100375.00;;;;9759401;30;20312;-84
2024/01/22 00:58:04;;;;;;;4.03;2.20;;;;;9.70;100390.00;;;;9771307;30;20699;-86
2024/01/22 01:03:05;;;;;;;4.60;2.33;;;;;9.50;100387.00;;;;9763351;30;20247;-87
2024/01/22 01:08:06;;;;;;;2.20;1.77;;;;;9.50;100279.00;;;;9763506;30;20533;-84
2024/01/22 01:13:07;;;;;;;1.90;1.53;;;;;9.60;100340.00;;;;9754985;30;20316;-84
2024/01/22 01:18:09;;;;;;;3.13;1.77;;;;;9.70;100337.00;;;;9776054;30;20676;-82
2024/01/22 01:23:10;;;;;;;2.50;1.77;;;;;9.80;100310.00;;;;9775084;30;20228;-78
2024/01/22 01:28:11;;;;;;;2.63;1.63;;;;;9.80;100325.00;;;;9758678;30;20287;-81
2024/01/22 01:33:12;;;;;;;2.37;1.47;;;;;9.90;100271.00;;;;9761540;30;20243;-77
2024/01/22 01:38:14;;;;;;;2.40;1.70;;;;;9.90;100284.00;;;;9772006;30;20316;-78
2024/01/22 01:43:17;;;;;;;1.70;1.53;;;;;10.00;100246.00;;;;9758010;30;20261;-77
2024/01/22 01:48:18;;;;;;;3.17;1.87;;;;;10.10;100273.00;;;;9763498;30;20337;-79
2024/01/22 01:53:20;;;;;;;2.27;1.57;;;;;10.20;100258.00;;;;9745486;30;20268;-77
2024/01/22 01:58:22;;;;;;;3.27;1.40;;;;;10.30;100268.00;;;;9769054;30;20248;-77
2024/01/22 02:03:24;;;;;;;2.03;1.83;;;;;10.30;100291.00;;;;9758090;30;20233;-77
2024/01/22 02:08:25;;;;;;;1.10;1.00;;;;;10.40;100263.00;;;;9761741;30;20240;-77
2024/01/22 02:13:28;;;;;;;1.57;1.23;;;;;10.60;100246.00;;;;9756928;30;20943;-77
2024/01/22 02:18:29;;;;;;;3.33;1.33;;;;;10.60;100241.00;;;;9771808;30;20234;-81
2024/01/22 02:23:30;;;;;;;1.87;1.30;;;;;10.70;100265.00;;;;9756452;30;20266;-78
2024/01/22 02:28:32;;;;;;;1.43;1.33;;;;;10.70;100243.00;;;;9758864;30;20227;-81
2024/01/22 02:33:34;;;;;;;1.77;1.50;;;;;10.60;100240.00;;;;9773724;30;20992;-79
2024/01/22 02:38:35;;;;;;;3.10;1.07;;;;;10.60;100226.00;;;;9748807;30;20228;-79
2024/01/22 02:43:36;;;;;;;1.23;1.10;;;;;10.60;100222.00;;;;9757328;30;20233;-79
2024/01/22 02:48:37;;;;;;;1.63;1.33;;;;;10.40;100189.00;;;;9741914;30;20321;-82
2024/01/22 02:53:38;;;;;;;2.37;1.30;;;;;10.20;100175.00;;;;9767172;30;20237;-82
2024/01/22 02:58:40;;;;;;;3.17;1.40;;;;;9.90;100196.00;;;;9740215;30;20311;-82
2024/01/22 03:03:41;;;;;;;2.63;1.37;;;;;9.80;100150.00;;;;9759280;30;20263;-81
2024/01/22 03:08:42;;;;;;;3.17;1.57;;;;;9.70;100163.00;;;;9747900;30;20260;-82
2024/01/22 03:13:43;;;;;;;1.20;0.90;;;;;9.70;100157.00;;;;9747693;30;20233;-83
2024/01/22 03:18:44;;;;;;;3.17;1.77;;;;;9.70;100132.00;;;;9741785;30;20872;-83
2024/01/22 03:23:46;;;;;;;1.73;1.33;;;;;9.70;100123.00;;;;9763464;30;20704;-82
2024/01/22 03:28:49;;;;;;;1.30;1.10;;;;;9.70;100127.00;;;;9747266;30;20584;-81
2024/01/22 03:33:51;;;;;;;1.90;1.13;;;;;9.80;100105.00;;;;9764512;30;20294;-80
2024/01/22 03:38:52;;;;;;;3.47;1.03;;;;;9.90;100111.00;;;;9758737;30;20774;-82
2024/01/22 03:43:54;;;;;;;0.73;0.73;;;;;10.10;100136.00;;;;9763016;30;20236;-83
2024/01/22 03:48:55;;;;;;;1.73;1.30;;;;;10.10;100097.00;;;;9760502;30;20249;-82
2024/01/22 03:53:56;;;;;;;1.53;1.17;;;;;10.30;100112.00;;;;9775569;30;20233;-81
2024/01/22 03:58:57;;;;;;;1.83;1.00;;;;;10.40;100110.00;;;;9768478;30;20230;-81
2024/01/22 04:03:58;;;;;;;1.40;1.10;;;;;10.60;100100.00;;;;9762967;30;20316;-81
2024/01/22 04:09:00;;;;;;;0.83;0.80;;;;;10.70;100063.00;;;;9755214;30;20257;-81
2024/01/22 04:14:01;;;;;;;1.67;1.07;;;;;10.90;100085.00;;;;9762607;30;20314;-80
2024/01/22 04:19:02;;;;;;;1.53;0.80;;;;;11.10;100108.00;;;;9778545;30;20234;-80
2024/01/22 04:24:04;;;;;;;2.60;0.90;;;;;11.40;100099.00;;;;9753460;30;20237;-79
2024/01/22 04:29:05;;;;;;;2.70;1.87;;;;;11.40;100090.00;;;;9774654;30;20804;-81
2024/01/22 04:34:06;;;;;;;1.73;0.80;;;;;11.40;100084.00;;;;9754649;30;20247;-80
2024/01/22 04:39:07;;;;;;;1.48;0.85;;;;;11.50;100100.00;;;;9758739;30;20229;-80
2024/01/22 04:44:09;;;;;;;2.60;1.10;;;;;11.50;100104.00;;;;9762977;30;20927;-80
2024/01/22 04:49:10;;;;;;;2.77;1.00;;;;;11.50;100078.00;;;;9747006;30;20225;-79
2024/01/22 04:54:11;;;;;;;0.80;0.80;;;;;11.40;100067.00;;;;9743479;30;20523;-83
2024/01/22 04:59:13;;;;;;;1.80;1.37;;;;;11.30;100049.00;;;;9768083;30;20572;-81
2024/01/22 05:04:15;;;;;;;2.20;0.98;;;;;11.30;100034.00;;;;9744585;30;20238;-82
2024/01/22 05:09:16;;;;;;;2.07;1.20;;;;;11.30;100022.00;;;;9779500;30;20874;-83
2024/01/22 05:14:17;;;;;;;3.53;0.90;;;;;11.30;100044.00;;;;9768887;30;20728;-84
2024/01/22 05:19:18;;;;;;;3.70;1.38;;;;;11.20;100027.00;;;;9765828;30;20244;-81
2024/01/22 05:24:20;;;;;;;1.20;1.10;;;;;10.90;100038.00;;;;9759769;30;20264;-84
2024/01/22 05:29:21;;;;;;;3.63;1.03;;;;;10.80;100024.00;;;;9756289;30;20244;-82
2024/01/22 05:34:22;;;;;;;2.07;0.87;;;;;10.70;100022.00;;;;9764544;30;20340;-84
2024/01/22 05:39:23;;;;;;;1.43;0.83;;;;;10.70;100003.00;;;;9782337;30;20319;-81
2024/01/22 05:44:25;;;;;;;2.63;1.80;;;;;10.60;100026.00;;;;9765584;30;20329;-82
2024/01/22 05:49:27;;;;;;;4.33;1.37;;;;;10.60;100032.00;;;;9767009;30;20592;-84
2024/01/22 05:54:31;;;;;;;1.63;0.77;;;;;10.60;100043.00;;;;9752124;30;20941;-84
2024/01/22 05:59:32;;;;;;;2.07;1.00;;;;;10.70;100011.00;;;;9768559;30;20234;-81
2024/01/22 06:04:33;;;;;;;0.87;0.70;;;;;10.80;100037.00;;;;9750289;30;20252;-84
2024/01/22 06:09:34;;;;;;;3.93;1.30;;;;;10.90;100074.00;;;;9754003;30;20253;-83
2024/01/22 06:14:35;;;;;;;1.03;0.67;;;;;11.10;100103.00;;;;9764027;30;20237;-84
2024/01/22 06:19:36;;;;;;;8.13;1.30;;;;;11.40;100102.00;;;;9765211;30;20230;-83
2024/01/22 06:24:38;;;;;;;1.17;0.70;;;;;11.30;100124.00;;;;9785349;30;20229;-86
2024/01/22 06:29:39;;;;;;;4.70;1.70;;;;;11.30;100118.00;;;;9766333;30;20233;-84
2024/01/22 06:34:41;;;;;;;9.02;1.70;;;;;11.20;100128.00;;;;9763642;30;20237;-84
2024/01/22 06:39:42;;;;;;;6.00;1.50;;;;;11.00;100123.00;;;;9750934;30;20228;-82
2024/01/22 06:44:43;;;;;;;5.80;1.57;;;;;10.90;100123.00;;;;9760655;30;20903;-82
2024/01/22 06:49:44;;;;;;;7.20;1.97;;;;;11.00;100137.00;;;;9750420;30;20257;-83
2024/01/22 06:54:46;;;;;;;8.43;1.60;;;;;10.90;100125.00;;;;9776751;30;20241;-83
2024/01/22 06:59:47;;;;;;;14.87;2.57;;;;;10.90;100137.00;;;;9753432;30;20234;-83
2024/01/22 07:04:48;;;;;;;9.50;2.77;;;;;10.80;100141.00;;;;9764333;30;20225;-83
2024/01/22 07:09:49;;;;;;;9.03;2.40;;;;;10.80;100143.00;;;;9768424;30;20229;-82
2024/01/22 07:14:51;;;;;;;1.80;0.87;;;;;10.80;100157.00;;;;9763860;30;20229;-79
2024/01/22 07:19:52;;;;;;;1.10;0.80;;;;;10.80;100150.00;;;;9762543;30;20745;-78
2024/01/22 07:24:53;;;;;;;3.03;1.10;;;;;10.70;100145.00;;;;9771873;30;20276;-78
2024/01/22 07:29:54;;;;;;;8.50;1.40;;;;;10.70;100142.00;;;;9748744;30;20324;-78
2024/01/22 07:34:56;;;;;;;9.73;1.80;;;;;10.80;100166.00;;;;9764819;30;20295;-77
2024/01/22 07:39:57;;;;;;;2.67;1.20;;;;;10.80;100172.00;;;;9765225;30;20241;-76
2024/01/22 07:44:58;;;;;;;17.67;3.60;;;;;10.80;100166.00;;;;9751734;30;20232;-77
2024/01/22 07:50:00;;;;;;;2.93;1.30;;;;;10.80;100170.00;;;;9774338;30;20225;-78
2024/01/22 07:55:02;;;;;;;3.00;0.83;;;;;10.80;100184.00;;;;9758660;29;20249;-78
2024/01/22 08:00:11;;;;;;;3.37;0.90;;;;;10.90;100169.00;;;;9749552;30;20264;-77
2024/01/22 08:05:13;;;;;;;4.23;1.50;;;;;11.00;100169.00;;;;9760254;30;20237;-78
2024/01/22 08:10:14;;;;;;;4.87;1.13;;;;;11.00;100175.00;;;;9758851;30;20263;-78
2024/01/22 08:15:15;;;;;;;6.37;1.73;;;;;11.00;100201.00;;;;9772224;30;20241;-80
2024/01/22 08:20:18;;;;;;;6.90;1.80;;;;;11.00;100193.00;;;;9768393;30;20237;-77
2024/01/22 08:25:27;;;;;;;8.30;1.73;;;;;11.10;100206.00;;;;9764700;30;20256;-83
2024/01/22 08:30:29;;;;;;;11.07;2.17;;;;;11.20;100207.00;;;;9763703;30;20759;-83
2024/01/22 08:35:31;;;;;;;18.80;3.00;;;;;11.00;100217.00;;;;9759544;30;20919;-82
2024/01/22 08:40:32;;;;;;;20.87;3.20;;;;;10.90;100220.00;;;;9751632;30;20240;-81
2024/01/22 08:45:34;;;;;;;19.43;5.90;;;;;10.90;100214.00;;;;9761680;30;20230;-81
2024/01/22 08:50:35;;;;;;;6.90;1.87;;;;;11.00;100225.00;;;;9771259;30;20759;-80
2024/01/22 08:55:36;;;;;;;13.90;2.17;;;;;11.20;100212.00;;;;9762745;30;20296;-81
2024/01/22 09:00:37;;;;;;;24.03;3.27;;;;;11.40;100212.00;;;;9771790;30;20656;-81
2024/01/22 09:05:38;;;;;;;9.33;3.17;;;;;11.60;100218.00;;;;9774252;30;20240;-81
2024/01/22 09:10:40;;;;;;;13.82;2.78;;;;;11.80;100211.00;;;;9768888;30;20245;-80
2024/01/22 09:15:41;;;;;;;13.47;3.47;;;;;11.90;100216.00;;;;9753719;29;20684;-81
2024/01/22 09:20:42;;;;;;;12.10;2.47;;;;;12.00;100217.00;;;;9757751;30;20253;-83
2024/01/22 09:25:43;;;;;;;18.48;3.47;;;;;12.00;100211.00;;;;9756100;30;20592;-82
2024/01/22 09:30:44;;;;;;;11.73;3.00;;;;;12.10;100217.00;;;;9783158;30;20241;-81
2024/01/22 09:35:45;;;;;;;17.77;3.88;;;;;12.00;100227.00;;;;9759817;30;20857;-84
2024/01/22 09:40:49;;;;;;;13.73;3.35;;;;;12.00;100227.00;;;;9780837;30;20229;-84
2024/01/22 09:45:51;;;;;;;17.77;3.73;;;;;11.90;100232.00;;;;9753635;30;20377;-83
2024/01/22 09:50:53;;;;;;;13.57;3.20;;;;;11.90;100241.00;;;;9746271;30;20596;-83
2024/01/22 09:55:54;;;;;;;17.30;2.92;;;;;11.80;100270.00;;;;9768898;30;20245;-84
2024/01/22 10:00:56;;;;;;;8.33;2.37;;;;;11.50;100280.00;;;;9774598;30;20241;-88
2024/01/22 10:05:59;;;;;;;8.55;2.00;;;;;11.30;100301.00;;;;9764404;29;20236;-80
2024/01/22 10:11:04;;;;;;;8.40;2.25;;;;;11.00;100306.00;;;;9769762;30;20684;-84
2024/01/22 10:16:10;;;;;;;11.87;2.67;;;;;10.80;100336.00;;;;9774698;30;20244;-83
2024/01/22 10:21:11;;;;;;;14.13;3.03;;;;;10.90;100324.00;;;;9778533;30;20283;-82
2024/01/22 10:26:13;;;;;;;12.30;3.17;;;;;11.10;100352.00;;;;9741973;30;1268265;-80
2024/01/22 10:31:15;;;;;;;15.07;3.27;;;;;11.20;100356.00;;;;9814298;30;20240;-84
2024/01/22 10:36:21;;;;;;;14.93;2.80;;;;;11.40;100363.00;;;;9844769;30;20255;-82
2024/01/22 10:41:24;;;;;;;15.37;3.50;;;;;11.50;100371.00;;;;9832178;29;20228;-82
2024/01/22 10:46:26;;;;;;;18.75;4.10;;;;;11.50;100371.00;;;;9834714;30;20849;-84
2024/01/22 10:51:28;;;;;;;23.63;4.00;;;;;11.60;100358.00;;;;9812205;29;20236;-81
2024/01/22 10:56:33;;;;;;;21.70;5.22;;;;;11.60;100383.00;;;;9844520;29;20244;-81
2024/01/22 11:01:36;;;;;;;27.73;5.65;;;;;11.60;100384.00;;;;9869862;29;20232;-82
2024/01/22 11:06:41;;;;;;;23.23;5.13;;;;;11.60;100411.00;;;;9812732;30;20794;-82
2024/01/22 11:11:47;;;;;;;33.67;6.00;;;;;11.50;100408.00;;;;9846799;29;20312;-81
2024/01/22 11:16:49;;;;;;;27.67;5.75;;;;;11.70;100410.00;;;;9823242;30;20239;-83
2024/01/22 11:21:53;;;;;;;30.57;5.70;;;;;11.60;100424.00;;;;9831785;30;20323;-82
2024/01/22 11:26:57;;;;;;;23.45;4.85;;;;;12.20;100439.00;;;;9832756;29;20236;-81
2024/01/22 11:32:26;;;;;;;33.25;5.40;;;;;12.10;100449.00;;;;9839042;30;20236;-82
2024/01/22 11:37:41;;;;;;;33.13;5.72;;;;;12.10;100456.00;;;;9843861;29;20220;-81
2024/01/22 11:42:43;;;;;;;23.67;5.22;;;;;12.60;100451.00;;;;9836944;30;20229;-82
2024/01/22 11:47:45;;;;;;;21.23;5.40;;;;;12.90;100475.00;;;;9830775;29;20228;-82
2024/01/22 11:52:49;;;;;;;30.92;6.45;;;;;13.00;100466.00;;;;9823153;29;20248;-82
2024/01/22 11:57:51;;;;;;;24.77;6.68;;;;;13.10;100486.00;;;;9836389;30;20313;-82
2024/01/22 12:02:58;;;;;;;30.73;6.38;;;;;13.20;100472.00;;;;9831403;30;20630;-80
2024/01/22 12:08:01;;;;;;;23.98;5.82;;;;;13.30;100490.00;;;;9832515;30;20239;-80
2024/01/22 12:13:04;;;;;;;26.33;5.95;;;;;13.40;100499.00;;;;9824506;30;20236;-81
2024/01/22 12:18:07;;;;;;;23.33;4.97;;;;;12.90;100507.00;;;;9852616;30;20236;-80
2024/01/22 12:23:11;;;;;;;25.60;4.88;;;;;13.10;100503.00;;;;9847730;29;20270;-81
2024/01/22 12:28:14;;;;;;;23.15;5.00;;;;;13.40;100511.00;;;;9844337;30;20380;-81
2024/01/22 12:33:24;;;;;;;24.33;5.47;;;;;13.20;100512.00;;;;9832820;30;20229;-81
2024/01/22 12:38:33;;;;;;;20.63;5.20;;;;;12.90;100509.00;;;;9829223;30;20268;-80
2024/01/22 12:43:38;;;;;;;26.58;5.45;;;;;12.80;100511.00;;;;9838861;30;20320;-80
2024/01/22 12:48:40;;;;;;;33.22;6.72;;;;;12.80;100516.00;;;;9839711;29;20336;-79
2024/01/22 12:53:46;;;;;;;21.73;5.38;;;;;12.60;100544.00;;;;9841488;30;20241;-80
2024/01/22 12:58:48;;;;;;;23.77;4.93;;;;;12.30;100542.00;;;;9855025;30;20858;-82
2024/01/22 13:03:50;;;;;;;28.88;5.85;;;;;12.40;100532.00;;;;9819623;30;20220;-81
2024/01/22 13:08:53;;;;;;;18.35;4.53;;;;;12.80;100528.00;;;;9831945;30;20236;-81
2024/01/22 13:13:55;;;;;;;17.05;4.43;;;;;12.80;100544.00;;;;9847240;29;20249;-80
2024/01/22 13:18:57;;;;;;;22.70;4.47;;;;;12.90;100548.00;;;;9840558;30;20224;-81
2024/01/22 13:24:01;;;;;;;27.30;5.65;;;;;12.60;100553.00;;;;9819836;29;20901;-82
2024/01/22 13:29:03;;;;;;;26.42;5.30;;;;;12.10;100558.00;;;;9830888;30;20243;-81
2024/01/22 13:34:05;;;;;;;23.88;4.60;;;;;12.00;100541.00;;;;9820314;30;20247;-83
2024/01/22 13:39:07;;;;;;;22.60;5.10;;;;;12.20;100540.00;;;;9813297;30;20241;-80
2024/01/22 13:44:14;;;;;;;24.90;5.20;;;;;12.10;100539.00;;;;9849755;30;20220;-81
2024/01/22 13:49:16;;;;;;;25.55;5.07;;;;;11.80;100536.00;;;;9827159;30;20229;-80
2024/01/22 13:54:18;;;;;;;25.48;5.70;;;;;11.60;100542.00;;;;9812978;30;20238;-80
2024/01/22 13:59:21;;;;;;;25.63;5.13;;;;;11.60;100526.00;;;;9824280;30;20232;-80
2024/01/22 14:04:23;;;;;;;29.52;6.00;;;;;11.60;100539.00;;;;9842070;30;20854;-80
2024/01/22 14:09:25;;;;;;;26.30;5.30;;;;;11.60;100527.00;;;;9829506;30;20268;-80
2024/01/22 14:14:27;;;;;;;25.15;5.45;;;;;11.70;100538.00;;;;9834011;30;20328;-80
2024/01/22 14:19:38;;;;;;;25.58;5.10;;;;;11.50;100545.00;;;;9845758;30;20707;-80
2024/01/22 14:24:40;;;;;;;31.57;6.13;;;;;11.90;100535.00;;;;9842335;29;20240;-80
2024/01/22 14:29:42;;;;;;;24.00;5.20;;;;;12.20;100544.00;;;;9827437;30;20235;-79
2024/01/22 14:34:44;;;;;;;24.10;4.47;;;;;12.00;100538.00;;;;9834352;30;20228;-81
2024/01/22 14:39:47;;;;;;;20.85;4.93;;;;;12.10;100536.00;;;;9822142;30;20225;-80
2024/01/22 14:44:51;;;;;;;17.40;3.83;;;;;12.10;100547.00;;;;9846485;29;20243;-79
2024/01/22 14:49:53;;;;;;;20.25;3.85;;;;;12.00;100568.00;;;;9850544;30;21215;-80
2024/01/22 14:54:57;;;;;;;12.27;2.53;;;;;11.70;100588.00;;;;9839084;29;20242;-80
2024/01/22 14:59:59;;;;;;;17.73;3.20;;;;;11.30;100594.00;;;;9859280;30;20240;-80
2024/01/22 15:05:01;;;;;;;17.63;3.37;;;;;11.00;100627.00;;;;9828609;30;20234;-81
2024/01/22 15:10:07;;;;;;;12.70;2.83;;;;;10.80;100646.00;;;;9847318;30;20402;-80
2024/01/22 15:15:10;;;;;;;15.13;2.77;;;;;10.80;100646.00;;;;9850006;30;20240;-80
2024/01/22 15:20:12;;;;;;;12.67;2.70;;;;;10.80;100658.00;;;;9828407;30;20309;-81
2024/01/22 15:25:14;;;;;;;12.50;3.33;;;;;10.60;100656.00;;;;9849997;29;20587;-79
2024/01/22 15:30:16;;;;;;;17.63;4.43;;;;;10.30;100660.00;;;;9821338;30;20255;-78
2024/01/22 15:35:18;;;;;;;16.53;3.20;;;;;10.20;100667.00;;;;9855778;30;20243;-81
2024/01/22 15:40:20;;;;;;;15.27;3.63;;;;;10.10;100675.00;;;;9838063;29;20228;-79
2024/01/22 15:45:22;;;;;;;21.53;3.20;;;;;9.90;100696.00;;;;9847261;30;20240;-79
2024/01/22 15:50:26;;;;;;;17.70;3.60;;;;;9.80;100701.00;;;;9846907;30;20241;-79
2024/01/22 15:55:28;;;;;;;21.77;4.03;;;;;9.70;100710.00;;;;9830842;30;20708;-80
2024/01/22 16:00:29;;;;;;;23.50;4.30;;;;;9.60;100705.00;;;;9855380;30;20339;-79
2024/01/22 16:05:31;;;;;;;19.70;4.03;;;;;9.50;100710.00;;;;9853259;30;20635;-79
2024/01/22 16:10:34;;;;;;;17.87;3.50;;;;;9.40;100718.00;;;;9854011;30;20715;-79
2024/01/22 16:15:36;;;;;;;26.73;4.50;;;;;9.30;100712.00;;;;9857153;30;20240;-79
2024/01/22 16:20:38;;;;;;;23.77;4.57;;;;;9.20;100731.00;;;;9848235;30;20229;-79
2024/01/22 16:25:40;;;;;;;26.70;5.27;;;;;9.10;100741.00;;;;9856528;29;20314;-78
2024/01/22 16:30:42;;;;;;;27.47;4.20;;;;;9.00;100754.00;;;;9859378;29;20261;-79
2024/01/22 16:35:45;;;;;;;16.47;3.57;;;;;9.00;100757.00;;;;9855276;29;20718;-77
2024/01/22 16:40:50;;;;;;;22.13;4.67;;;;;8.90;100764.00;;;;9860360;29;20309;-78
2024/01/22 16:45:52;;;;;;;24.87;4.77;;;;;8.90;100777.00;;;;9833887;30;20240;-76
2024/01/22 16:50:54;;;;;;;25.87;4.00;;;;;8.90;100787.00;;;;9842832;30;20240;-76
2024/01/22 16:55:56;;;;;;;20.20;5.00;;;;;9.00;100802.00;;;;9837235;30;20312;-76
2024/01/22 17:00:58;;;;;;;26.70;5.10;;;;;9.00;100819.00;;;;9834316;30;20328;-77
2024/01/22 17:06:01;;;;;;;25.43;4.97;;;;;9.00;100832.00;;;;9845744;30;20232;-78
2024/01/22 17:11:03;;;;;;;31.00;5.73;;;;;9.00;100829.00;;;;9851734;30;20364;-76
2024/01/22 17:16:05;;;;;;;22.20;4.07;;;;;8.90;100847.00;;;;9840352;29;20235;-76
2024/01/22 17:21:08;;;;;;;25.87;4.90;;;;;8.90;100845.00;;;;9837703;29;20307;-77
2024/01/22 17:26:10;;;;;;;25.23;4.53;;;;;8.90;100850.00;;;;9846303;29;20228;-80
2024/01/22 17:31:12;;;;;;;25.27;5.13;;;;;8.90;100859.00;;;;9837645;30;20595;-76
2024/01/22 17:36:15;;;;;;;30.73;5.33;;;;;8.90;100877.00;;;;9837239;30;20228;-77
2024/01/22 17:41:17;;;;;;;19.83;4.50;;;;;9.00;100888.00;;;;9823737;29;20231;-76
2024/01/22 17:46:19;;;;;;;17.33;3.77;;;;;8.90;100894.00;;;;9832344;30;20224;-78
2024/01/22 17:51:22;;;;;;;23.20;4.57;;;;;8.90;100910.00;;;;9869153;29;20320;-76
2024/01/22 17:56:23;;;;;;;19.77;4.00;;;;;8.80;100918.00;;;;9847494;30;20273;-76
2024/01/22 18:01:26;;;;;;;20.17;4.10;;;;;8.80;100930.00;;;;9844397;30;20297;-78
2024/01/22 18:06:28;;;;;;;22.57;4.00;;;;;8.70;100947.00;;;;9846752;30;20980;-77
2024/01/22 18:11:29;;;;;;;22.60;3.53;;;;;8.70;100946.00;;;;9835982;30;20321;-78
2024/01/22 18:16:31;;;;;;;13.73;2.67;;;;;8.50;100972.00;;;;9820017;30;20726;-77
2024/01/22 18:21:34;;;;;;;17.67;2.53;;;;;8.50;100989.00;;;;9825574;29;20323;-76
2024/01/22 18:26:36;;;;;;;20.10;4.77;;;;;8.50;101010.00;;;;9834896;29;20231;-77
2024/01/22 18:31:38;;;;;;;16.37;4.00;;;;;8.40;101008.00;;;;9854613;30;20744;-78
2024/01/22 18:36:40;;;;;;;16.47;4.90;;;;;8.40;101012.00;;;;9867409;30;20595;-76
2024/01/22 18:41:42;;;;;;;14.93;4.63;;;;;8.30;101016.00;;;;9847619;29;20244;-77
2024/01/22 18:46:44;;;;;;;26.07;5.17;;;;;8.20;101021.00;;;;9832744;29;20227;-77
2024/01/22 18:51:47;;;;;;;17.10;3.53;;;;;8.10;101051.00;;;;9819603;30;20285;-76
2024/01/22 18:56:49;;;;;;;23.63;4.20;;;;;8.10;101042.00;;;;9822927;30;20240;-81
2024/01/22 19:01:51;;;;;;;21.87;5.37;;;;;8.20;101043.00;;;;9852014;30;20568;-79
2024/01/22 19:06:53;;;;;;;16.20;3.20;;;;;8.20;101046.00;;;;9835665;30;20228;-79
2024/01/22 19:11:55;;;;;;;19.47;4.00;;;;;8.30;101057.00;;;;9854024;29;20228;-78
2024/01/22 19:16:57;;;;;;;22.83;4.07;;;;;8.30;101052.00;;;;9812734;30;20232;-79
2024/01/22 19:21:59;;;;;;;16.50;4.20;;;;;8.20;101059.00;;;;9837626;30;20285;-78
2024/01/22 19:27:01;;;;;;;23.83;4.20;;;;;8.10;101059.00;;;;9838830;29;20236;-78
2024/01/22 19:32:03;;;;;;;28.50;4.60;;;;;8.20;101059.00;;;;9864955;29;20232;-78
2024/01/22 19:37:05;;;;;;;20.70;4.80;;;;;8.20;101070.00;;;;9838427;29;20238;-79
2024/01/22 19:42:07;;;;;;;23.83;5.33;;;;;8.30;101082.00;;;;9850138;29;20236;-79
2024/01/22 19:47:09;;;;;;;24.80;5.37;;;;;8.30;101100.00;;;;9843952;29;20319;-78
2024/01/22 19:52:11;;;;;;;26.10;4.83;;;;;8.30;101094.00;;;;9850102;29;20256;-79
2024/01/22 19:57:13;;;;;;;25.13;5.07;;;;;8.40;101100.00;;;;9818071;29;20229;-78
2024/01/22 20:02:15;;;;;;;25.57;5.40;;;;;8.50;101101.00;;;;9832825;29;20244;-79
2024/01/22 20:07:17;;;;;;;23.40;4.53;;;;;8.60;101106.00;;;;9857295;29;20242;-81
2024/01/22 20:12:20;;;;;;;23.00;4.33;;;;;8.50;101121.00;;;;9851484;30;20237;-82
2024/01/22 20:17:23;;;;;;;24.07;5.17;;;;;8.40;101110.00;;;;9849782;29;20228;-82
2024/01/22 20:22:24;;;;;;;30.33;4.67;;;;;8.50;101126.00;;;;9853679;30;20232;-82
2024/01/22 20:27:26;;;;;;;32.10;4.70;;;;;8.50;101119.00;;;;9857365;30;20228;-81
2024/01/22 20:32:28;;;;;;;22.73;4.80;;;;;8.30;101126.00;;;;9848792;30;20232;-82
2024/01/22 20:37:30;;;;;;;36.00;5.37;;;;;8.30;101113.00;;;;9856645;30;20381;-82
2024/01/22 20:42:33;;;;;;;28.53;5.47;;;;;8.40;101123.00;;;;9823461;30;20282;-82
2024/01/22 20:47:35;;;;;;;33.63;4.20;;;;;8.40;101123.00;;;;9855781;30;21003;-81
2024/01/22 20:52:37;;;;;;;28.60;5.30;;;;;8.40;101116.00;;;;9851876;30;20228;-82
2024/01/22 20:57:40;;;;;;;19.47;4.43;;;;;8.20;101124.00;;;;9828075;30;20882;-81
2024/01/22 21:02:43;;;;;;;25.03;5.20;;;;;8.20;101128.00;;;;9835597;29;20228;-82
2024/01/22 21:07:45;;;;;;;25.57;4.87;;;;;8.10;101138.00;;;;9846061;29;20228;-81
2024/01/22 21:12:47;;;;;;;25.03;5.17;;;;;8.10;101145.00;;;;9834811;30;20747;-78
2024/01/22 21:17:49;;;;;;;27.73;4.83;;;;;8.00;101168.00;;;;9823564;30;20306;-79
2024/01/22 21:22:51;;;;;;;25.43;5.83;;;;;8.10;101168.00;;;;9848542;30;20235;-80
2024/01/22 21:27:53;;;;;;;23.83;5.57;;;;;8.10;101172.00;;;;9838641;30;20855;-78
2024/01/22 21:32:58;;;;;;;26.63;5.10;;;;;8.00;101175.00;;;;9843445;30;20232;-80
2024/01/22 21:38:00;;;;;;;32.70;5.47;;;;;8.00;101180.00;;;;9832283;30;20255;-78
2024/01/22 21:43:02;;;;;;;21.63;4.90;;;;;8.00;101185.00;;;;9847852;30;20236;-79
2024/01/22 21:48:04;;;;;;;21.97;4.40;;;;;8.00;101186.00;;;;9823621;30;20321;-78
2024/01/22 21:53:06;;;;;;;23.33;5.73;;;;;8.00;101184.00;;;;9850708;29;20236;-79
2024/01/22 21:58:08;;;;;;;33.37;5.23;;;;;8.00;101181.00;;;;9838720;30;20757;-78
2024/01/22 22:03:11;;;;;;;26.63;5.70;;;;;7.90;101202.00;;;;9810851;30;20228;-78
2024/01/22 22:08:13;;;;;;;28.57;5.60;;;;;8.00;101215.00;;;;9820475;30;20675;-78
2024/01/22 22:13:15;;;;;;;30.63;6.43;;;;;8.10;101211.00;;;;9844064;30;20706;-79
2024/01/22 22:18:19;;;;;;;29.70;6.17;;;;;8.20;101218.00;;;;9828083;30;20245;-78
2024/01/22 22:23:21;;;;;;;26.27;5.33;;;;;8.30;101238.00;;;;9843548;30;20275;-81
2024/01/22 22:28:23;;;;;;;26.97;5.20;;;;;8.30;101248.00;;;;9847016;30;20227;-80
2024/01/22 22:33:26;;;;;;;29.43;4.80;;;;;8.20;101248.00;;;;9836373;30;20224;-80
2024/01/22 22:38:28;;;;;;;40.07;6.43;;;;;8.20;101250.00;;;;9849503;30;20890;-80
2024/01/22 22:43:30;;;;;;;33.17;6.23;;;;;8.30;101275.00;;;;9849802;30;20848;-81
2024/01/22 22:48:32;;;;;;;29.53;5.67;;;;;8.30;101264.00;;;;9831427;30;20274;-81
2024/01/22 22:53:36;;;;;;;28.10;4.93;;;;;8.40;101253.00;;;;9815063;30;20241;-80
2024/01/22 22:58:38;;;;;;;28.93;5.27;;;;;8.40;101267.00;;;;9855871;29;20232;-80
2024/01/22 23:03:40;;;;;;;24.70;4.67;;;;;8.40;101294.00;;;;9857756;30;21552;-82
2024/01/22 23:08:42;;;;;;;27.90;4.50;;;;;8.40;101300.00;;;;9841811;29;20251;-81
2024/01/22 23:13:43;;;;;;;23.33;5.17;;;;;8.30;101295.00;;;;9843482;29;20886;-81
2024/01/22 23:18:45;;;;;;;22.80;4.50;;;;;8.30;101309.00;;;;9853212;30;20315;-80
2024/01/22 23:23:48;;;;;;;31.00;5.30;;;;;8.20;101325.00;;;;9846638;30;20307;-81
2024/01/22 23:28:50;;;;;;;23.47;4.40;;;;;8.10;101336.00;;;;9856078;30;20796;-80
2024/01/22 23:33:52;;;;;;;34.13;5.00;;;;;8.00;101330.00;;;;9827962;30;20732;-76
2024/01/22 23:38:54;;;;;;;24.57;3.93;;;;;7.90;101332.00;;;;9824724;30;20231;-78
2024/01/22 23:43:56;;;;;;;28.17;4.70;;;;;7.80;101347.00;;;;9849615;30;20232;-76
2024/01/22 23:48:58;;;;;;;19.40;4.23;;;;;7.80;101339.00;;;;9819025;30;21114;-78
2024/01/22 23:54:01;;;;;;;20.50;3.80;;;;;7.70;101356.00;;;;9846328;29;20647;-77
2024/01/22 23:59:03;;;;;;;24.60;3.90;;;;;7.60;101356.00;;;;9839591;30;20745;-76
